createdAt,value
2023-03-22T00:01:28.984Z,99961.77
2023-03-22T00:03:58.430Z,99958.73
2023-03-22T00:06:27.356Z,99964.31
2023-03-22T00:08:56.138Z,99964.27
2023-03-22T00:11:29.860Z,99965.98
2023-03-22T00:13:59.236Z,99966.38
2023-03-22T00:16:27.998Z,99965.19
2023-03-22T00:19:03.233Z,99964.13
2023-03-22T00:21:32.173Z,99968.20
2023-03-22T00:24:01.892Z,99967.33
2023-03-22T00:26:30.919Z,99970.60
2023-03-22T00:28:59.667Z,99971.75
2023-03-22T00:31:32.832Z,99974.20
2023-03-22T00:34:01.625Z,99975.47
2023-03-22T00:36:30.718Z,99971.46
2023-03-22T00:38:59.799Z,99975.98
2023-03-22T00:41:28.674Z,99975.39
2023-03-22T00:43:57.461Z,99976.38
2023-03-22T00:46:27.642Z,99974.67
2023-03-22T00:48:56.906Z,99973.20
2023-03-22T00:51:26.573Z,99972.90
2023-03-22T00:53:56.565Z,99975.08
2023-03-22T00:56:29.160Z,99979.05
2023-03-22T00:59:14.555Z,99975.83
2023-03-22T01:01:47.708Z,99978.64
2023-03-22T01:04:18.432Z,99976.83
2023-03-22T01:06:47.877Z,99979.62
2023-03-22T01:09:16.730Z,99981.95
2023-03-22T01:11:46.453Z,99984.31
2023-03-22T01:14:15.464Z,99979.61
2023-03-22T01:16:44.379Z,99974.75
2023-03-22T01:19:13.824Z,99979.24
2023-03-22T01:21:42.783Z,99976.14
2023-03-22T01:24:11.944Z,99975.98
2023-03-22T01:26:41.106Z,99981.23
2023-03-22T01:29:10.314Z,99980.08
2023-03-22T01:31:39.408Z,99982.27
2023-03-22T01:34:08.194Z,99981.35
2023-03-22T01:36:37.703Z,99983.52
2023-03-22T01:39:07.305Z,99991.73
2023-03-22T01:41:37.811Z,99994.66
2023-03-22T01:44:16.752Z,100000.35
2023-03-22T01:46:47.145Z,99999.56
2023-03-22T01:49:24.167Z,100004.11
2023-03-22T01:51:56.832Z,100002.53
2023-03-22T01:54:44.715Z,100000.77
2023-03-22T01:57:37.920Z,100002.33
2023-03-22T02:00:11.279Z,100004.36
2023-03-22T02:02:48.448Z,100003.46
2023-03-22T02:05:23.991Z,100008.63
2023-03-22T02:07:53.226Z,100011.21
2023-03-22T02:10:26.034Z,100015.83
2023-03-22T02:13:08.104Z,100016.65
2023-03-22T02:16:16.931Z,100015.64
2023-03-22T02:18:59.948Z,100019.70
2023-03-22T02:21:47.555Z,100024.77
2023-03-22T02:24:56.101Z,100026.10
2023-03-22T02:27:46.776Z,100021.42
2023-03-22T02:30:18.542Z,100025.58
2023-03-22T02:33:05.977Z,100025.89
2023-03-22T02:35:43.663Z,100027.69
2023-03-22T02:38:52.956Z,100030.81
2023-03-22T02:41:47.258Z,100028.48
2023-03-22T02:44:35.091Z,100028.11
2023-03-22T02:47:06.772Z,100026.65
2023-03-22T02:49:52.003Z,100028.38
2023-03-22T02:52:30.317Z,100036.48
2023-03-22T02:55:11.680Z,100040.95
2023-03-22T02:57:52.145Z,100040.83
2023-03-22T03:00:21.365Z,100043.84
2023-03-22T03:02:54.010Z,100045.73
2023-03-22T03:05:23.476Z,100050.36
2023-03-22T03:07:59.747Z,100051.77
2023-03-22T03:10:32.897Z,100057.72
2023-03-22T03:13:02.254Z,100062.80
2023-03-22T03:15:31.558Z,100061.61
2023-03-22T03:18:30.093Z,100063.88
2023-03-22T03:21:18.385Z,100066.89
2023-03-22T03:24:01.264Z,100068.17
2023-03-22T03:26:51.799Z,100069.31
2023-03-22T03:29:28.715Z,100074.86
2023-03-22T03:31:57.687Z,100076.70
2023-03-22T03:34:33.318Z,100077.48
2023-03-22T03:37:06.049Z,100079.77
2023-03-22T03:39:36.937Z,100085.43
2023-03-22T03:42:05.909Z,100082.13
2023-03-22T03:44:34.604Z,100078.85
2023-03-22T03:47:03.459Z,100079.88
2023-03-22T03:49:32.264Z,100077.80
2023-03-22T03:52:01.138Z,100075.35
2023-03-22T03:54:30.378Z,100076.46
2023-03-22T03:57:00.185Z,100077.25
2023-03-22T03:59:30.522Z,100079.36
2023-03-22T04:02:00.768Z,100082.41
2023-03-22T04:04:37.575Z,100086.23
2023-03-22T04:07:07.524Z,100079.58
2023-03-22T04:09:38.815Z,100083.91
2023-03-22T04:12:37.904Z,100087.72
2023-03-22T04:15:18.267Z,100088.14
2023-03-22T04:17:50.020Z,100090.98
2023-03-22T04:20:19.882Z,100090.30
2023-03-22T04:22:49.437Z,100090.34
2023-03-22T04:25:19.142Z,100090.79
2023-03-22T04:28:01.214Z,100087.85
2023-03-22T04:30:31.271Z,100092.67
2023-03-22T04:33:07.401Z,100089.21
2023-03-22T04:36:06.087Z,100093.20
2023-03-22T04:38:40.654Z,100096.63
2023-03-22T04:41:11.103Z,100097.85
2023-03-22T04:43:51.423Z,100100.77
2023-03-22T04:46:21.669Z,100102.40
2023-03-22T04:49:01.829Z,100109.79
2023-03-22T04:51:32.500Z,100108.06
2023-03-22T04:54:19.533Z,100108.91
2023-03-22T04:56:48.889Z,100109.90
2023-03-22T04:59:20.546Z,100109.63
2023-03-22T05:01:57.061Z,100112.56
2023-03-22T05:04:27.764Z,100121.02
2023-03-22T05:07:03.605Z,100121.37
2023-03-22T05:09:45.030Z,100122.02
2023-03-22T05:12:15.471Z,100124.27
2023-03-22T05:15:03.960Z,100131.38
2023-03-22T05:17:36.029Z,100128.06
2023-03-22T05:20:10.643Z,100130.42
2023-03-22T05:22:41.508Z,100135.27
2023-03-22T05:25:12.317Z,100132.89
2023-03-22T05:27:44.394Z,100133.86
2023-03-22T05:30:44.117Z,100134.67
2023-03-22T05:33:24.097Z,100138.08
2023-03-22T05:35:56.373Z,100141.20
2023-03-22T05:38:25.270Z,100138.79
2023-03-22T05:40:57.519Z,100137.62
2023-03-22T05:43:26.495Z,100138.90
2023-03-22T05:45:56.085Z,100138.52
2023-03-22T05:48:44.392Z,100143.80
2023-03-22T05:51:18.114Z,100141.90
2023-03-22T05:53:53.865Z,100148.79
2023-03-22T05:56:31.494Z,100148.88
2023-03-22T05:59:08.062Z,100150.39
2023-03-22T06:01:37.555Z,100151.91
2023-03-22T06:04:11.995Z,100155.85
2023-03-22T06:07:06.768Z,100157.54
2023-03-22T06:09:50.675Z,100162.22
2023-03-22T06:12:33.380Z,100166.53
2023-03-22T06:15:11.353Z,100172.61
2023-03-22T06:18:04.765Z,100179.52
2023-03-22T06:20:39.631Z,100182.80
2023-03-22T06:23:16.171Z,100183.04
2023-03-22T06:25:46.561Z,100183.70
2023-03-22T06:28:17.204Z,100183.22
2023-03-22T06:30:53.687Z,100184.58
2023-03-22T06:33:45.836Z,100189.79
2023-03-22T06:36:30.696Z,100194.58
2023-03-22T06:39:06.671Z,100189.61
2023-03-22T06:41:37.145Z,100190.65
2023-03-22T06:44:06.061Z,100189.25
2023-03-22T06:46:53.326Z,100186.52
2023-03-22T06:49:47.542Z,100183.20
2023-03-22T06:52:23.925Z,100185.71
2023-03-22T06:54:52.682Z,100187.20
2023-03-22T06:57:27.969Z,100190.11
2023-03-22T06:59:56.765Z,100193.13
2023-03-22T07:02:25.660Z,100195.34
2023-03-22T07:05:19.189Z,100195.38
2023-03-22T07:07:48.335Z,100196.00
2023-03-22T07:10:18.612Z,100192.29
2023-03-22T07:12:49.000Z,100187.80
2023-03-22T07:15:20.512Z,100192.22
2023-03-22T07:17:57.459Z,100193.88
2023-03-22T07:20:26.869Z,100196.70
2023-03-22T07:22:56.685Z,100196.80
2023-03-22T07:25:26.542Z,100197.44
2023-03-22T07:28:01.772Z,100195.81
2023-03-22T07:30:38.282Z,100196.66
2023-03-22T07:33:08.787Z,100199.27
2023-03-22T07:35:38.107Z,100194.33
2023-03-22T07:38:09.222Z,100191.63
2023-03-22T07:40:39.481Z,100190.73
2023-03-22T07:43:12.396Z,100188.48
2023-03-22T07:46:02.094Z,100191.81
2023-03-22T07:48:57.775Z,100193.91
2023-03-22T07:51:46.737Z,100195.67
2023-03-22T07:54:32.231Z,100194.67
2023-03-22T07:57:02.557Z,100194.25
2023-03-22T07:59:32.862Z,100197.37
2023-03-22T08:02:07.000Z,100195.25
2023-03-22T08:04:39.361Z,100194.13
2023-03-22T08:07:20.523Z,100196.09
2023-03-22T08:09:58.368Z,100189.77
2023-03-22T08:12:28.895Z,100196.24
2023-03-22T08:15:06.520Z,100193.16
2023-03-22T08:17:37.019Z,100194.89
2023-03-22T08:20:09.307Z,100201.41
2023-03-22T08:22:47.948Z,100197.17
2023-03-22T08:25:24.473Z,100201.10
2023-03-22T08:27:53.741Z,100201.91
2023-03-22T08:30:23.671Z,100200.77
2023-03-22T08:32:52.848Z,100204.25
2023-03-22T08:35:22.505Z,100203.41
2023-03-22T08:37:58.805Z,100196.84
2023-03-22T08:40:34.198Z,100202.87
2023-03-22T08:43:04.894Z,100201.23
2023-03-22T08:45:33.618Z,100201.08
2023-03-22T08:48:12.874Z,100197.70
2023-03-22T08:50:55.805Z,100196.67
2023-03-22T08:53:37.142Z,100198.11
2023-03-22T08:56:27.506Z,100200.50
2023-03-22T08:59:09.358Z,100199.14
2023-03-22T09:01:58.556Z,100194.64
2023-03-22T09:04:27.816Z,100193.02
2023-03-22T09:06:58.826Z,100193.52
2023-03-22T09:09:27.476Z,100195.04
2023-03-22T09:11:58.593Z,100189.16
2023-03-22T09:14:27.214Z,100191.89
2023-03-22T09:16:56.392Z,100191.91
2023-03-22T09:19:26.926Z,100192.75
2023-03-22T09:21:55.973Z,100201.80
2023-03-22T09:24:36.577Z,100204.39
2023-03-22T09:27:05.284Z,100208.67
2023-03-22T09:29:33.887Z,100207.20
2023-03-22T09:32:05.129Z,100202.46
2023-03-22T09:34:35.672Z,100204.35
2023-03-22T09:37:06.848Z,100206.09
2023-03-22T09:39:45.158Z,100202.71
2023-03-22T09:42:39.214Z,100205.63
2023-03-22T09:45:14.510Z,100201.84
2023-03-22T09:47:47.032Z,100203.55
2023-03-22T09:50:21.427Z,100198.94
2023-03-22T09:52:51.278Z,100201.18
2023-03-22T09:55:28.958Z,100200.48
2023-03-22T09:58:23.594Z,100202.52
2023-03-22T10:01:01.571Z,100206.98
2023-03-22T10:03:58.030Z,100202.31
2023-03-22T10:06:29.293Z,100204.20
2023-03-22T10:09:15.684Z,100204.34
2023-03-22T10:11:46.493Z,100205.00
2023-03-22T10:14:24.526Z,100211.45
2023-03-22T10:16:55.314Z,100202.43
2023-03-22T10:19:28.845Z,100204.29
2023-03-22T10:21:59.450Z,100198.89
2023-03-22T10:24:33.490Z,100202.86
2023-03-22T10:27:02.380Z,100198.94
2023-03-22T10:29:39.969Z,100198.64
2023-03-22T10:32:16.028Z,100198.96
2023-03-22T10:34:45.744Z,100198.61
2023-03-22T10:37:17.114Z,100201.18
2023-03-22T10:39:47.714Z,100198.59
2023-03-22T10:42:20.573Z,100200.55
2023-03-22T10:44:56.771Z,100198.80
2023-03-22T10:47:34.230Z,100200.88
2023-03-22T10:50:05.316Z,100198.58
2023-03-22T10:52:39.797Z,100197.91
2023-03-22T10:55:13.456Z,100204.94
2023-03-22T10:57:43.511Z,100198.70
2023-03-22T11:00:16.018Z,100193.10
2023-03-22T11:02:58.768Z,100195.91
2023-03-22T11:05:29.566Z,100195.49
2023-03-22T11:07:59.466Z,100194.96
2023-03-22T11:10:33.081Z,100198.00
2023-03-22T11:13:12.070Z,100194.27
2023-03-22T11:15:42.740Z,100194.95
2023-03-22T11:18:16.225Z,100191.67
2023-03-22T11:20:56.134Z,100192.42
2023-03-22T11:23:25.562Z,100191.23
2023-03-22T11:25:56.771Z,100188.96
2023-03-22T11:28:55.385Z,100187.84
2023-03-22T11:31:26.254Z,100190.61
2023-03-22T11:33:57.902Z,100184.13
2023-03-22T11:36:27.318Z,100180.63
2023-03-22T11:39:03.493Z,100179.81
2023-03-22T11:41:38.029Z,100183.67
2023-03-22T11:44:10.133Z,100181.94
2023-03-22T11:46:39.696Z,100180.98
2023-03-22T11:49:09.838Z,100180.94
2023-03-22T11:51:45.726Z,100179.97
2023-03-22T11:54:21.194Z,100174.86
2023-03-22T11:56:50.736Z,100176.45
2023-03-22T11:59:30.715Z,100174.63
2023-03-22T12:02:17.833Z,100173.25
2023-03-22T12:04:48.183Z,100172.83
2023-03-22T12:07:18.271Z,100171.16
2023-03-22T12:09:53.710Z,100170.70
2023-03-22T12:12:30.272Z,100165.14
2023-03-22T12:15:15.856Z,100166.67
2023-03-22T12:17:49.890Z,100167.21
2023-03-22T12:20:32.729Z,100164.87
2023-03-22T12:23:01.942Z,100165.65
2023-03-22T12:25:32.937Z,100161.05
2023-03-22T12:28:07.442Z,100161.86
2023-03-22T12:30:47.852Z,100160.30
2023-03-22T12:33:26.929Z,100160.16
2023-03-22T12:36:01.040Z,100158.98
2023-03-22T12:38:48.643Z,100158.80
2023-03-22T12:41:32.701Z,100154.84
2023-03-22T12:44:10.032Z,100151.05
2023-03-22T12:46:51.916Z,100147.73
2023-03-22T12:49:26.749Z,100139.86
2023-03-22T12:51:59.823Z,100143.96
2023-03-22T12:54:28.527Z,100148.41
2023-03-22T12:56:57.225Z,100139.66
2023-03-22T12:59:29.599Z,100141.61
2023-03-22T13:02:01.447Z,100140.55
2023-03-22T13:04:36.078Z,100136.95
2023-03-22T13:07:34.610Z,100138.52
2023-03-22T13:10:36.696Z,100136.64
2023-03-22T13:13:11.144Z,100135.90
2023-03-22T13:16:01.993Z,100132.78
2023-03-22T13:18:38.351Z,100131.44
2023-03-22T13:21:21.782Z,100130.20
2023-03-22T13:24:01.046Z,100129.13
2023-03-22T13:26:37.872Z,100126.40
2023-03-22T13:29:18.914Z,100129.40
2023-03-22T13:31:57.891Z,100129.89
2023-03-22T13:34:39.806Z,100130.61
2023-03-22T13:37:31.934Z,100127.07
2023-03-22T13:40:22.205Z,100128.04
2023-03-22T13:42:51.922Z,100133.79
2023-03-22T13:45:32.305Z,100126.24
2023-03-22T13:48:29.151Z,100126.97
2023-03-22T13:50:58.985Z,100125.16
2023-03-22T13:53:30.851Z,100126.71
2023-03-22T13:56:03.951Z,100126.40
2023-03-22T13:58:52.669Z,100126.64
2023-03-22T14:01:29.457Z,100126.02
2023-03-22T14:04:01.598Z,100125.18
2023-03-22T14:06:39.538Z,100125.23
2023-03-22T14:09:15.477Z,100120.45
2023-03-22T14:11:47.244Z,100124.02
2023-03-22T14:14:30.493Z,100122.89
2023-03-22T14:17:12.138Z,100120.66
2023-03-22T14:19:40.949Z,100119.28
